Time;durP1;ratioP1;P1;durP2;ratioP2;P2;SDS_P1;SDS_P2;PMS_P1;PMS_P2;Temp;Humidity;BMP_temperature;BMP_pressure;BME280_temperature;BME280_humidity;BME280_pressure;Samples;Min_cycle;Max_cycle;Signal;HPM_P1;HPM_P2
2023/05/16 00:01:28;;;;;;;1.17;0.90;;;;;;;14.97;49.86;101152.75;4913101;28;97307;-83
2023/05/16 00:03:55;;;;;;;4.10;1.00;;;;;;;14.95;50.00;101142.19;4916039;28;97205;-84
2023/05/16 00:06:21;;;;;;;1.20;1.00;;;;;;;14.94;50.08;101156.53;4911670;28;99395;-83
2023/05/16 00:08:47;;;;;;;1.43;0.90;;;;;;;15.01;50.03;101158.78;4914465;28;99076;-82
2023/05/16 00:11:12;;;;;;;0.80;0.60;;;;;;;15.09;50.00;101151.44;4914377;28;97464;-81
2023/05/16 00:13:37;;;;;;;1.10;1.00;;;;;;;15.08;49.90;101133.28;4931679;28;97667;-82
2023/05/16 00:16:04;;;;;;;1.23;0.90;;;;;;;15.07;49.93;101159.50;4920459;28;97413;-83
2023/05/16 00:18:29;;;;;;;0.83;0.83;;;;;;;15.09;49.92;101151.44;4917434;28;96975;-82
2023/05/16 00:20:55;;;;;;;2.47;1.03;;;;;;;15.06;50.15;101151.69;4919600;28;97136;-82
2023/05/16 00:23:20;;;;;;;1.03;0.90;;;;;;;15.06;50.05;101143.38;4919302;28;97394;-82
2023/05/16 00:25:46;;;;;;;0.90;0.60;;;;;;;14.99;50.16;101134.34;4915661;28;99099;-82
2023/05/16 00:28:12;;;;;;;0.87;0.87;;;;;;;15.06;50.22;101180.16;4919713;28;99195;-82
2023/05/16 00:30:37;;;;;;;1.10;0.77;;;;;;;15.08;50.02;101138.09;4919889;28;97045;-83
2023/05/16 00:33:02;;;;;;;1.47;0.87;;;;;;;15.10;50.01;101143.88;4916609;28;96733;-83
2023/05/16 00:35:27;;;;;;;2.70;1.20;;;;;;;15.08;50.15;101154.72;4915049;28;99715;-82
2023/05/16 00:37:53;;;;;;;0.87;0.70;;;;;;;15.07;50.15;101172.63;4917950;28;99449;-81
2023/05/16 00:40:18;;;;;;;3.07;1.30;;;;;;;15.05;50.39;101155.75;4933000;28;100094;-83
2023/05/16 00:42:44;;;;;;;2.80;0.67;;;;;;;14.99;50.43;101148.22;4919075;28;97254;-82
2023/05/16 00:45:10;;;;;;;0.90;0.80;;;;;;;14.99;50.47;101156.53;4924141;28;97451;-81
2023/05/16 00:47:35;;;;;;;0.80;0.80;;;;;;;14.99;50.50;101153.75;4915982;28;97062;-83
2023/05/16 00:50:01;;;;;;;1.33;0.90;;;;;;;15.06;50.57;101148.94;4914117;28;97207;-82
2023/05/16 00:52:27;;;;;;;1.37;1.13;;;;;;;15.06;50.58;101146.91;4929744;27;97633;-82
2023/05/16 00:54:53;;;;;;;1.93;1.20;;;;;;;15.02;50.53;101152.75;4914720;28;96963;-83
2023/05/16 00:57:18;;;;;;;3.07;0.93;;;;;;;14.98;50.67;101174.41;4910688;28;98586;-82
2023/05/16 00:59:45;;;;;;;2.00;0.90;;;;;;;15.10;50.52;101150.16;4920555;28;97001;-81
2023/05/16 01:02:12;;;;;;;3.30;1.23;;;;;;;15.12;50.56;101161.50;4913930;28;97188;-82
2023/05/16 01:04:38;;;;;;;1.10;1.10;;;;;;;15.17;50.50;101182.13;4916566;28;99711;-83
2023/05/16 01:07:04;;;;;;;0.90;0.90;;;;;;;15.19;50.52;101168.50;4915809;28;99119;-83
2023/05/16 01:09:30;;;;;;;1.93;1.20;;;;;;;15.15;50.54;101151.41;4913641;28;97324;-83
2023/05/16 01:12:27;;;;;;;1.63;1.10;;;;;;;15.12;51.59;101161.50;4917594;28;97341;-82
2023/05/16 01:15:07;;;;;;;2.30;1.10;;;;;;;15.16;51.37;101158.47;4928394;28;98922;-81
2023/05/16 01:17:49;;;;;;;2.07;1.27;;;;;;;15.12;51.50;101149.66;4921920;28;100312;-83
2023/05/16 01:20:43;;;;;;;1.27;1.00;;;;;;;15.13;51.50;101145.63;4916584;28;97536;-82
2023/05/16 01:23:43;;;;;;;2.70;1.10;;;;;;;15.14;51.64;101152.66;4915225;28;97257;-82
2023/05/16 01:26:25;;;;;;;1.83;1.10;;;;;;;15.18;51.36;101155.94;4916407;28;97888;-84
2023/05/16 01:28:51;;;;;;;1.83;0.93;;;;;;;15.22;50.66;101162.72;4915061;28;98557;-83
2023/05/16 01:31:18;;;;;;;2.97;0.90;;;;;;;15.24;50.70;101149.09;4925810;28;98218;-82
2023/05/16 01:33:43;;;;;;;1.20;1.00;;;;;;;15.21;50.53;101141.03;4917915;28;97841;-82
2023/05/16 01:36:27;;;;;;;1.97;1.07;;;;;;;15.23;51.12;101144.81;4915509;28;97265;-81
2023/05/16 01:39:02;;;;;;;2.70;0.77;;;;;;;15.23;50.94;101146.81;4913390;28;96989;-82
2023/05/16 01:41:39;;;;;;;3.70;1.00;;;;;;;15.20;51.30;101150.63;4915298;28;96776;-81
2023/05/16 01:44:11;;;;;;;2.20;1.00;;;;;;;15.18;51.03;101156.66;4936496;28;97397;-82
2023/05/16 01:46:43;;;;;;;1.83;1.20;;;;;;;15.20;51.02;101158.94;4921158;28;98579;-82
2023/05/16 01:49:20;;;;;;;0.80;0.80;;;;;;;15.20;51.37;101153.41;4922007;28;99054;-82
2023/05/16 01:52:00;;;;;;;1.37;0.90;;;;;;;15.19;51.70;101152.66;4928867;27;97330;-82
2023/05/16 01:54:31;;;;;;;2.37;1.13;;;;;;;15.18;51.31;101169.78;4918496;28;97056;-82
2023/05/16 01:56:57;;;;;;;2.60;0.77;;;;;;;15.15;51.08;101154.19;4913582;28;98959;-82
2023/05/16 01:59:23;;;;;;;1.60;0.90;;;;;;;15.15;51.17;101145.88;4913643;28;98297;-82
2023/05/16 02:01:52;;;;;;;2.10;1.07;;;;;;;15.10;51.30;101141.09;4915655;28;97360;-83
2023/05/16 02:04:17;;;;;;;1.03;0.93;;;;;;;15.06;51.33;101155.22;4919314;28;97394;-83
2023/05/16 02:06:43;;;;;;;1.83;0.77;;;;;;;15.01;51.52;101154.00;4925396;28;100637;-81
2023/05/16 02:09:08;;;;;;;2.47;0.80;;;;;;;15.01;51.50;101156.75;4914152;28;97815;-84
2023/05/16 02:11:34;;;;;;;4.00;1.10;;;;;;;15.01;51.60;101167.09;4922229;28;96953;-82
2023/05/16 02:13:59;;;;;;;1.20;0.83;;;;;;;15.00;51.64;101169.09;4915623;28;97307;-83
2023/05/16 02:16:25;;;;;;;1.50;0.63;;;;;;;14.99;51.57;101159.28;4921563;28;99982;-81
2023/05/16 02:18:50;;;;;;;1.30;0.97;;;;;;;15.02;51.78;101186.00;4913752;28;96847;-82
2023/05/16 02:21:15;;;;;;;1.10;1.00;;;;;;;15.04;51.83;101168.84;4922938;28;97466;-81
2023/05/16 02:23:41;;;;;;;1.27;0.70;;;;;;;15.05;51.98;101166.84;4915108;28;97140;-81
2023/05/16 02:26:06;;;;;;;2.07;0.77;;;;;;;15.02;51.87;101166.59;4915633;28;98576;-82
2023/05/16 02:28:31;;;;;;;1.33;0.80;;;;;;;14.97;52.11;101159.06;4917959;28;100158;-81
2023/05/16 02:31:00;;;;;;;1.30;1.10;;;;;;;14.93;52.77;101168.88;4919938;28;97291;-82
2023/05/16 02:33:28;;;;;;;1.80;0.90;;;;;;;14.86;52.33;101172.94;4913726;28;96842;-81
2023/05/16 02:35:53;;;;;;;1.17;0.70;;;;;;;14.85;52.44;101179.00;4917945;28;99337;-82
2023/05/16 02:38:20;;;;;;;2.00;0.90;;;;;;;14.80;52.87;101177.00;4912955;28;97468;-82
2023/05/16 02:40:49;;;;;;;1.37;0.80;;;;;;;14.83;53.08;101181.53;4916442;28;96590;-81
2023/05/16 02:43:14;;;;;;;0.80;0.50;;;;;;;14.80;52.78;101205.47;4913872;28;97269;-79
2023/05/16 02:45:40;;;;;;;0.93;0.60;;;;;;;14.76;52.71;101182.06;4915945;28;97957;-82
2023/05/16 02:48:06;;;;;;;1.27;0.60;;;;;;;14.82;52.85;101202.94;4914489;28;98491;-83
2023/05/16 02:50:32;;;;;;;2.10;0.60;;;;;;;14.72;52.80;101193.38;4914888;28;97002;-82
2023/05/16 02:52:58;;;;;;;2.90;0.80;;;;;;;14.79;52.89;101201.16;4921165;28;97473;-82
2023/05/16 02:55:25;;;;;;;0.93;0.80;;;;;;;14.77;52.73;101195.38;4921717;28;100245;-82
2023/05/16 02:57:50;;;;;;;1.37;0.80;;;;;;;14.69;53.03;101193.66;4914086;28;97194;-82
2023/05/16 03:00:17;;;;;;;1.80;0.70;;;;;;;14.65;52.82;101212.53;4910805;28;97502;-82
2023/05/16 03:02:42;;;;;;;2.53;0.77;;;;;;;14.63;53.11;101199.22;4916629;28;97422;-81
2023/05/16 03:05:08;;;;;;;3.10;1.00;;;;;;;14.62;53.06;101199.69;4912392;28;97999;-83
2023/05/16 03:07:34;;;;;;;1.23;0.67;;;;;;;14.65;53.04;101195.94;4926985;28;100395;-82
2023/05/16 03:09:59;;;;;;;0.83;0.63;;;;;;;14.64;53.06;101202.72;4913333;28;96999;-82
2023/05/16 03:12:25;;;;;;;3.23;0.80;;;;;;;14.63;52.85;101221.38;4917108;28;97455;-81
2023/05/16 03:14:50;;;;;;;1.57;0.80;;;;;;;14.61;52.90;101198.94;4914490;28;98189;-83
2023/05/16 03:17:16;;;;;;;3.30;0.97;;;;;;;14.62;52.70;101213.53;4916327;28;99258;-82
2023/05/16 03:19:41;;;;;;;1.80;0.80;;;;;;;14.60;52.76;101205.75;4920696;28;96969;-82
2023/05/16 03:22:06;;;;;;;2.40;1.00;;;;;;;14.63;52.85;101212.28;4926333;28;97209;-82
2023/05/16 03:24:32;;;;;;;1.53;0.60;;;;;;;14.64;52.86;101205.47;4917448;28;97574;-83
2023/05/16 03:26:58;;;;;;;1.70;0.60;;;;;;;14.61;52.55;101196.16;4913576;28;97118;-82
2023/05/16 03:29:25;;;;;;;2.53;0.70;;;;;;;14.58;53.01;101215.81;4912720;28;96903;-82
2023/05/16 03:31:50;;;;;;;2.70;1.00;;;;;;;14.57;52.86;101209.53;4913000;28;98770;-82
2023/05/16 03:34:24;;;;;;;1.67;0.73;;;;;;;14.58;53.32;101221.34;4938875;28;99502;-81
2023/05/16 03:36:51;;;;;;;2.60;0.93;;;;;;;14.58;52.97;101227.66;4909420;28;99801;-83
2023/05/16 03:39:16;;;;;;;9.27;1.30;;;;;;;14.60;52.86;101229.91;4920422;28;96915;-83
2023/05/16 03:41:42;;;;;;;3.57;0.97;;;;;;;14.60;52.86;101236.22;4918126;28;97116;-82
2023/05/16 03:44:07;;;;;;;3.13;0.70;;;;;;;14.63;52.75;101257.38;4910868;28;97772;-82
2023/05/16 03:46:34;;;;;;;0.90;0.70;;;;;;;14.59;52.83;101253.34;4910807;28;105269;-83
2023/05/16 03:48:59;;;;;;;5.53;1.10;;;;;;;14.54;53.00;101252.09;4903968;28;98580;-81
2023/05/16 03:51:25;;;;;;;1.97;0.80;;;;;;;14.51;53.05;101250.31;4911567;28;96891;-82
2023/05/16 03:53:50;;;;;;;4.33;1.00;;;;;;;14.43;53.15;101243.78;4909936;28;99818;-82
2023/05/16 03:56:16;;;;;;;3.57;1.10;;;;;;;14.39;53.23;101248.06;4910496;28;98854;-82
2023/05/16 03:58:41;;;;;;;3.37;1.43;;;;;;;14.42;53.26;101253.34;4928909;27;97452;-82
2023/05/16 04:01:06;;;;;;;3.23;0.90;;;;;;;14.43;53.23;101259.63;4926968;28;97769;-83
2023/05/16 04:03:32;;;;;;;4.27;1.53;;;;;;;14.42;53.32;101264.41;4917800;28;99281;-81
2023/05/16 04:05:58;;;;;;;3.00;0.70;;;;;;;14.44;53.33;101275.72;4937803;28;99240;-82
2023/05/16 04:08:24;;;;;;;1.87;1.00;;;;;;;14.44;53.22;101266.69;4914654;28;97675;-83
2023/05/16 04:10:49;;;;;;;5.70;1.10;;;;;;;14.41;53.33;101271.22;4924392;28;97635;-83
2023/05/16 04:13:15;;;;;;;1.47;0.80;;;;;;;14.42;53.45;101269.94;4917400;28;97975;-82
2023/05/16 04:15:40;;;;;;;2.10;0.80;;;;;;;14.35;53.46;101267.69;4915639;28;97668;-82
2023/05/16 04:18:05;;;;;;;2.30;1.23;;;;;;;14.38;53.37;101280.53;4917645;28;96874;-83
2023/05/16 04:20:31;;;;;;;3.00;1.27;;;;;;;14.38;53.34;101277.75;4915878;28;97853;-81
2023/05/16 04:22:56;;;;;;;3.53;1.00;;;;;;;14.32;53.40;101288.06;4917527;28;97412;-82
2023/05/16 04:25:22;;;;;;;3.37;1.10;;;;;;;14.24;53.56;101273.94;4926178;28;100032;-82
2023/05/16 04:27:47;;;;;;;3.13;1.03;;;;;;;14.23;53.59;101285.53;4919701;28;99770;-82
2023/05/16 04:30:13;;;;;;;3.27;1.40;;;;;;;14.17;53.50;101268.94;4920697;28;97927;-82
2023/05/16 04:32:39;;;;;;;1.97;1.10;;;;;;;14.21;53.71;101285.28;4917354;28;98930;-82
2023/05/16 04:35:05;;;;;;;3.70;1.20;;;;;;;14.20;53.64;101308.66;4918248;28;100294;-83
2023/05/16 04:37:30;;;;;;;4.27;1.53;;;;;;;14.18;53.61;101280.72;4920785;28;96783;-82
2023/05/16 04:39:55;;;;;;;3.20;1.50;;;;;;;14.14;53.47;101272.69;4936585;28;97812;-82
2023/05/16 04:42:21;;;;;;;12.90;1.40;;;;;;;14.18;53.50;101289.78;4915980;28;97810;-82
2023/05/16 04:44:46;;;;;;;7.60;1.37;;;;;;;14.23;53.68;101289.06;4931313;28;100263;-82
2023/05/16 04:47:12;;;;;;;3.30;1.30;;;;;;;14.20;53.72;101303.88;4919406;28;97396;-82
2023/05/16 04:49:38;;;;;;;6.33;1.37;;;;;;;14.15;53.83;101288.03;4918387;28;100275;-82
2023/05/16 04:52:04;;;;;;;7.73;1.43;;;;;;;14.20;53.54;101295.56;4916087;28;97024;-81
2023/05/16 04:54:30;;;;;;;8.43;1.67;;;;;;;14.19;53.66;101299.63;4917381;28;98183;-84
2023/05/16 04:56:56;;;;;;;3.37;1.10;;;;;;;14.15;53.49;101306.66;4938474;28;97180;-83
2023/05/16 04:59:21;;;;;;;2.93;0.90;;;;;;;14.17;53.56;101307.66;4920757;28;97213;-81
2023/05/16 05:01:47;;;;;;;5.27;1.47;;;;;;;14.19;53.39;101312.69;4932647;28;97510;-82
2023/05/16 05:04:12;;;;;;;3.10;1.10;;;;;;;14.20;53.29;101319.72;4939690;28;101404;-82
2023/05/16 05:06:37;;;;;;;6.30;1.73;;;;;;;14.25;53.09;101335.59;4915587;28;97283;-82
2023/05/16 05:09:04;;;;;;;7.47;1.30;;;;;;;14.26;52.94;101318.47;4921386;28;99504;-82
2023/05/16 05:11:30;;;;;;;4.77;1.33;;;;;;;14.22;52.87;101322.75;4928442;28;100145;-82
2023/05/16 05:13:55;;;;;;;6.60;1.40;;;;;;;14.19;53.01;101356.97;4947746;28;100368;-82
2023/05/16 05:16:20;;;;;;;5.07;1.50;;;;;;;14.23;52.71;101335.34;4919104;28;97453;-82
2023/05/16 05:18:46;;;;;;;8.23;1.40;;;;;;;14.19;52.60;101332.06;4930245;28;97216;-82
2023/05/16 05:21:11;;;;;;;7.63;1.27;;;;;;;14.19;52.64;101345.91;4921464;28;100641;-82
2023/05/16 05:23:37;;;;;;;4.40;1.10;;;;;;;14.12;52.65;101363.75;4920549;28;98611;-82
2023/05/16 05:26:02;;;;;;;6.03;1.70;;;;;;;14.18;52.77;101345.16;4919511;28;96948;-82
2023/05/16 05:28:27;;;;;;;4.13;1.30;;;;;;;14.16;52.61;101357.97;4922099;28;97646;-82
2023/05/16 05:30:53;;;;;;;6.17;1.50;;;;;;;14.17;52.52;101337.34;4920380;28;98675;-82
2023/05/16 05:33:18;;;;;;;3.27;1.23;;;;;;;14.17;52.46;101353.94;4920002;28;100456;-83
2023/05/16 05:35:44;;;;;;;8.03;1.00;;;;;;;14.21;52.24;101354.47;4921644;28;97633;-82
2023/05/16 05:38:09;;;;;;;5.90;1.10;;;;;;;14.25;52.21;101360.50;4919705;28;97086;-82
2023/05/16 05:40:34;;;;;;;3.17;0.93;;;;;;;14.26;52.09;101364.78;4917054;28;97613;-82
2023/05/16 05:42:59;;;;;;;5.57;1.63;;;;;;;14.30;52.16;101368.09;4921400;28;98854;-83
2023/05/16 05:45:25;;;;;;;6.67;1.00;;;;;;;14.30;51.93;101376.41;4923428;28;96998;-83
2023/05/16 05:47:50;;;;;;;3.93;1.00;;;;;;;14.22;51.97;101409.31;4930747;28;97397;-83
2023/05/16 05:50:16;;;;;;;3.00;0.93;;;;;;;14.22;52.02;101383.63;4929616;28;97072;-81
2023/05/16 05:52:41;;;;;;;5.40;1.17;;;;;;;14.17;51.83;101389.94;4925494;28;97558;-82
2023/05/16 05:55:07;;;;;;;5.03;1.77;;;;;;;14.21;51.97;101377.38;4930901;28;96768;-82
2023/05/16 05:57:33;;;;;;;4.77;0.83;;;;;;;14.30;51.82;101372.88;4939644;28;96817;-81
2023/05/16 05:59:58;;;;;;;6.67;1.63;;;;;;;14.40;51.41;101399.81;4933285;28;97451;-82
2023/05/16 06:02:23;;;;;;;7.30;1.37;;;;;;;14.49;51.74;101410.66;4941006;27;99146;-82
2023/05/16 06:04:49;;;;;;;7.37;1.50;;;;;;;14.57;51.72;101383.97;4930344;28;97034;-82
2023/05/16 06:07:15;;;;;;;2.30;1.00;;;;;;;14.67;51.38;101388.03;4924693;28;96947;-82
2023/05/16 06:09:41;;;;;;;7.63;1.57;;;;;;;14.78;51.15;101396.34;4922364;28;100144;-83
2023/05/16 06:12:07;;;;;;;3.53;0.97;;;;;;;14.91;51.15;101409.69;4926517;28;99309;-82
2023/05/16 06:14:32;;;;;;;4.47;1.37;;;;;;;14.98;50.93;101415.47;4917754;28;97026;-81
2023/05/16 06:16:58;;;;;;;6.00;1.50;;;;;;;15.03;50.97;101417.50;4927720;28;97156;-81
2023/05/16 06:19:23;;;;;;;7.33;1.00;;;;;;;15.08;50.90;101420.75;4919259;28;99370;-82
2023/05/16 06:21:48;;;;;;;4.97;1.20;;;;;;;15.09;50.78;101420.28;4927051;28;97188;-85
2023/05/16 06:24:14;;;;;;;2.50;0.90;;;;;;;15.12;50.80;101415.72;4920433;28;97447;-82
2023/05/16 06:26:39;;;;;;;7.90;1.53;;;;;;;15.14;50.76;101433.34;4920335;28;97588;-82
2023/05/16 06:29:04;;;;;;;6.40;1.37;;;;;;;15.09;50.70;101428.59;4927810;28;97877;-82
2023/05/16 06:31:30;;;;;;;2.97;0.93;;;;;;;15.12;50.58;101435.88;4929980;28;97239;-81
2023/05/16 06:33:56;;;;;;;6.87;1.50;;;;;;;15.12;50.42;101448.97;4914590;28;97765;-83
2023/05/16 06:36:21;;;;;;;5.30;1.40;;;;;;;15.17;50.37;101443.44;4917892;28;97045;-81
2023/05/16 06:38:46;;;;;;;3.20;1.17;;;;;;;15.21;50.24;101443.19;4919335;28;99045;-81
2023/05/16 06:41:12;;;;;;;3.97;0.87;;;;;;;15.20;50.14;101441.69;4937951;28;113040;-81
2023/05/16 06:43:39;;;;;;;3.03;0.90;;;;;;;15.22;50.13;101428.06;4914945;28;99610;-81
2023/05/16 06:46:04;;;;;;;1.00;0.50;;;;;;;15.28;50.08;101459.31;4931196;27;97018;-82
2023/05/16 06:48:30;;;;;;;1.57;0.73;;;;;;;15.35;50.05;101462.34;4921805;28;97692;-82
2023/05/16 06:50:56;;;;;;;3.77;1.23;;;;;;;15.28;49.78;101501.66;4915373;28;101255;-82
2023/05/16 06:53:21;;;;;;;5.50;1.30;;;;;;;15.32;49.87;101465.34;4921336;28;96858;-82
2023/05/16 06:55:47;;;;;;;4.23;1.30;;;;;;;15.28;49.71;101470.41;4913849;28;97137;-82
2023/05/16 06:58:12;;;;;;;7.80;1.70;;;;;;;15.25;49.65;101468.63;4914515;28;99139;-83
2023/05/16 07:00:38;;;;;;;3.27;1.13;;;;;;;15.17;49.43;101449.00;4910292;28;99245;-81
2023/05/16 07:03:03;;;;;;;2.40;0.83;;;;;;;15.08;49.56;101454.78;4914410;28;97316;-81
2023/05/16 07:05:29;;;;;;;2.90;1.00;;;;;;;15.19;49.46;101459.56;4936892;28;97256;-82
2023/05/16 07:07:54;;;;;;;5.07;1.37;;;;;;;15.25;49.49;101452.00;4912622;28;97911;-82
2023/05/16 07:10:20;;;;;;;4.70;1.10;;;;;;;15.34;49.30;101454.50;4909933;28;98855;-82
2023/05/16 07:12:46;;;;;;;6.13;1.27;;;;;;;15.37;49.17;101457.03;4924746;28;97186;-82
2023/05/16 07:15:11;;;;;;;6.47;1.30;;;;;;;15.36;49.25;101461.06;4920617;28;97153;-81
2023/05/16 07:17:37;;;;;;;4.63;1.00;;;;;;;15.44;48.84;101462.09;4913108;28;98816;-81
2023/05/16 07:20:03;;;;;;;9.33;1.90;;;;;;;15.49;48.70;101471.66;4930903;28;97906;-81
2023/05/16 07:22:29;;;;;;;4.80;1.30;;;;;;;15.43;48.86;101476.44;4918248;28;97275;-81
2023/05/16 07:24:56;;;;;;;4.10;1.27;;;;;;;15.48;48.78;101486.81;4922200;28;96887;-82
2023/05/16 07:27:21;;;;;;;5.80;1.47;;;;;;;15.54;48.57;101463.34;4915022;28;97200;-83
2023/05/16 07:29:47;;;;;;;6.30;1.00;;;;;;;15.73;48.44;101471.88;4920575;28;99831;-82
2023/05/16 07:32:12;;;;;;;5.13;1.03;;;;;;;15.82;48.19;101462.53;4916213;28;97484;-81
2023/05/16 07:34:37;;;;;;;6.33;1.00;;;;;;;15.91;48.19;101471.34;4923336;28;97570;-82
2023/05/16 07:37:03;;;;;;;6.97;1.77;;;;;;;16.00;48.06;101473.06;4915442;28;97430;-82
2023/05/16 07:39:29;;;;;;;4.20;1.10;;;;;;;16.02;47.70;101464.97;4926740;28;99993;-82
2023/05/16 07:41:55;;;;;;;4.87;1.10;;;;;;;15.98;47.64;101476.34;4914392;28;97009;-81
2023/05/16 07:44:20;;;;;;;3.23;1.03;;;;;;;15.97;47.67;101472.06;4914878;28;97530;-81
2023/05/16 07:46:45;;;;;;;5.00;1.47;;;;;;;15.93;47.69;101470.81;4912032;28;100630;-82
2023/05/16 07:49:11;;;;;;;3.37;1.00;;;;;;;15.98;47.79;101487.47;4916594;28;100021;-82
2023/05/16 07:51:36;;;;;;;2.53;1.10;;;;;;;15.93;47.58;101468.78;4923055;28;97282;-81
2023/05/16 07:54:02;;;;;;;3.93;1.37;;;;;;;16.07;47.41;101476.06;4916775;28;96780;-81
2023/05/16 07:56:27;;;;;;;3.30;1.10;;;;;;;16.11;47.29;101471.00;4913620;28;99525;-81
2023/05/16 07:58:53;;;;;;;3.50;0.90;;;;;;;16.10;47.17;101471.50;4914894;28;97429;-81
2023/05/16 08:01:19;;;;;;;3.70;0.90;;;;;;;16.02;46.98;101481.63;4913100;28;97077;-82
2023/05/16 08:03:44;;;;;;;5.23;1.33;;;;;;;16.06;46.90;101493.22;4926849;28;97542;-82
2023/05/16 08:06:10;;;;;;;4.60;1.10;;;;;;;16.12;46.79;101486.38;4919413;28;101525;-82
2023/05/16 08:08:35;;;;;;;6.50;1.20;;;;;;;16.19;46.45;101485.84;4910470;28;98116;-81
2023/05/16 08:11:00;;;;;;;3.00;0.80;;;;;;;16.29;46.56;101492.63;4925979;28;97332;-82
2023/05/16 08:13:25;;;;;;;4.93;1.30;;;;;;;16.40;46.34;101484.25;4913270;28;97579;-81
2023/05/16 08:15:51;;;;;;;2.03;1.20;;;;;;;16.46;46.08;101489.78;4913408;28;104273;-83
2023/05/16 08:18:16;;;;;;;6.83;1.33;;;;;;;16.52;46.07;101475.88;4912119;28;97502;-82
2023/05/16 08:20:42;;;;;;;5.13;1.07;;;;;;;16.59;45.75;101475.34;4914600;28;97014;-81
2023/05/16 08:23:08;;;;;;;4.27;1.10;;;;;;;16.58;45.30;101484.97;4921771;28;97498;-82
2023/05/16 08:25:34;;;;;;;2.60;0.80;;;;;;;16.48;45.68;101468.56;4914306;28;97968;-81
2023/05/16 08:28:00;;;;;;;1.93;0.90;;;;;;;16.43;45.75;101488.78;4925167;27;98567;-83
2023/05/16 08:30:26;;;;;;;2.37;1.07;;;;;;;16.53;45.74;101489.28;4910673;28;96771;-82
2023/05/16 08:32:52;;;;;;;1.90;0.70;;;;;;;16.60;45.60;101496.31;4935554;28;97357;-83
2023/05/16 08:35:17;;;;;;;3.33;1.03;;;;;;;16.62;45.62;101485.44;4913529;28;97667;-82
2023/05/16 08:37:42;;;;;;;4.70;1.03;;;;;;;16.64;45.60;101482.91;4922039;28;97369;-83
2023/05/16 08:40:09;;;;;;;5.30;0.97;;;;;;;16.78;45.42;101485.31;4917519;28;97094;-80
2023/05/16 08:42:35;;;;;;;3.73;1.10;;;;;;;16.92;45.20;101489.03;4910998;28;97012;-82
2023/05/16 08:45:01;;;;;;;2.73;0.77;;;;;;;17.00;44.61;101476.84;4912415;28;99164;-82
2023/05/16 08:47:30;;;;;;;2.67;1.20;;;;;;;16.91;43.68;101468.81;4918024;28;100201;-82
2023/05/16 08:49:57;;;;;;;1.93;0.90;;;;;;;16.86;44.38;101486.28;4912359;28;97190;-82
2023/05/16 08:52:27;;;;;;;3.87;0.90;;;;;;;17.02;44.26;101470.75;4932505;28;97220;-81
2023/05/16 08:54:53;;;;;;;1.67;0.87;;;;;;;17.10;44.48;101483.56;4923232;28;99268;-82
2023/05/16 08:57:20;;;;;;;2.93;0.77;;;;;;;17.08;44.44;101488.16;4911342;28;97045;-82
2023/05/16 08:59:46;;;;;;;2.13;1.00;;;;;;;17.29;44.51;101488.50;4924437;28;96936;-82
2023/05/16 09:02:12;;;;;;;2.73;0.87;;;;;;;17.51;43.96;101477.94;4913451;28;97173;-82
2023/05/16 09:04:40;;;;;;;2.03;0.73;;;;;;;17.57;43.90;101483.44;4912600;28;97555;-81
2023/05/16 09:07:05;;;;;;;5.27;1.10;;;;;;;17.73;43.69;101486.09;4914055;28;100607;-83
2023/05/16 09:09:30;;;;;;;3.30;0.80;;;;;;;17.97;43.50;101486.03;4921235;28;97402;-81
2023/05/16 09:11:56;;;;;;;2.73;0.80;;;;;;;18.10;42.95;101481.88;4914993;28;97252;-82
2023/05/16 09:14:21;;;;;;;3.00;0.93;;;;;;;18.19;42.90;101484.28;4910946;28;99608;-81
2023/05/16 09:17:06;;;;;;;3.67;0.73;;;;;;;18.18;41.52;101474.41;4919231;28;99308;-81
2023/05/16 09:19:39;;;;;;;4.13;0.80;;;;;;;18.04;42.11;101483.97;4914898;28;96867;-82
2023/05/16 09:22:07;;;;;;;3.00;1.20;;;;;;;18.12;42.70;101473.75;4915680;28;97029;-81
2023/05/16 09:24:37;;;;;;;3.00;0.97;;;;;;;18.32;42.00;101470.44;4914788;28;98543;-82
2023/05/16 09:27:10;;;;;;;2.07;0.80;;;;;;;18.56;41.45;101468.38;4918197;28;98248;-82
2023/05/16 09:29:35;;;;;;;3.57;0.90;;;;;;;18.61;41.84;101478.69;4911588;28;97166;-81
2023/05/16 09:32:14;;;;;;;2.00;0.80;;;;;;;18.74;41.36;101480.78;4913158;28;96945;-82
2023/05/16 09:34:44;;;;;;;1.33;0.90;;;;;;;18.90;40.97;101468.63;4911461;28;98956;-82
2023/05/16 09:37:11;;;;;;;4.13;1.00;;;;;;;18.78;41.50;101484.03;4915772;28;99269;-81
2023/05/16 09:39:40;;;;;;;5.40;0.90;;;;;;;18.48;41.56;101489.00;4914759;28;97438;-81
2023/05/16 09:42:10;;;;;;;1.43;0.80;;;;;;;18.18;41.53;101493.91;4911659;28;97125;-81
2023/05/16 09:44:36;;;;;;;5.93;1.50;;;;;;;17.90;42.02;101486.66;4912130;28;97944;-83
2023/05/16 09:47:02;;;;;;;3.00;0.80;;;;;;;17.98;42.09;101484.78;4914323;28;97724;-82
2023/05/16 09:49:27;;;;;;;4.13;1.20;;;;;;;18.10;42.03;101477.06;4914134;28;97075;-82
2023/05/16 09:51:52;;;;;;;1.47;0.80;;;;;;;18.38;41.75;101476.69;4918931;28;97024;-82
2023/05/16 09:54:30;;;;;;;3.40;0.83;;;;;;;18.36;41.26;101477.22;4928887;28;100231;-82
2023/05/16 09:56:55;;;;;;;1.30;0.70;;;;;;;18.34;41.82;101482.56;4911885;27;97960;-81
2023/05/16 09:59:20;;;;;;;2.20;0.73;;;;;;;18.41;41.57;101478.44;4912636;28;97485;-82
2023/05/16 10:01:47;;;;;;;0.93;0.73;;;;;;;18.49;41.20;101482.16;4915532;28;97534;-81
2023/05/16 10:04:15;;;;;;;0.70;0.60;;;;;;;18.61;40.95;101500.97;4909828;28;99454;-82
2023/05/16 10:06:41;;;;;;;0.90;0.60;;;;;;;18.73;40.17;101482.06;4913542;28;99311;-82
2023/05/16 10:09:11;;;;;;;3.50;0.80;;;;;;;18.85;40.06;101483.41;4914256;28;96747;-82
2023/05/16 10:11:40;;;;;;;2.50;0.90;;;;;;;18.95;40.15;101492.88;4920732;28;97295;-82
2023/05/16 10:14:07;;;;;;;1.63;0.80;;;;;;;19.05;40.19;101485.63;4913446;28;99188;-81
2023/05/16 10:16:33;;;;;;;3.10;0.80;;;;;;;19.11;40.07;101477.91;4910715;28;99099;-83
2023/05/16 10:19:00;;;;;;;2.00;0.97;;;;;;;19.17;39.57;101481.38;4911580;28;100628;-82
2023/05/16 10:21:28;;;;;;;2.30;1.07;;;;;;;19.21;39.10;101479.03;4919536;28;96920;-81
2023/05/16 10:23:57;;;;;;;1.87;0.80;;;;;;;19.16;37.72;101481.91;4908417;28;98036;-82
2023/05/16 10:26:23;;;;;;;2.50;1.00;;;;;;;19.09;39.63;101463.00;4914789;28;100838;-81
2023/05/16 10:28:49;;;;;;;1.37;0.60;;;;;;;19.13;39.15;101478.13;4911530;28;98453;-82
2023/05/16 10:31:15;;;;;;;1.20;0.70;;;;;;;18.90;39.34;101470.66;4907688;28;96551;-83
2023/05/16 10:33:41;;;;;;;1.83;0.70;;;;;;;18.93;39.62;101470.34;4917374;28;100257;-83
2023/05/16 10:36:10;;;;;;;1.77;0.80;;;;;;;19.00;39.69;101466.94;4913367;28;96796;-83
2023/05/16 10:38:37;;;;;;;1.73;0.60;;;;;;;18.98;39.51;101472.28;4909473;28;96776;-82
2023/05/16 10:41:04;;;;;;;3.57;1.30;;;;;;;18.75;39.65;101489.88;4935030;28;97050;-83
2023/05/16 10:43:29;;;;;;;1.73;1.00;;;;;;;18.62;39.72;101477.41;4910007;28;100650;-83
2023/05/16 10:46:09;;;;;;;3.10;1.10;;;;;;;18.75;39.00;101478.75;4911954;28;96950;-82
2023/05/16 10:48:37;;;;;;;2.10;0.70;;;;;;;18.87;39.85;101466.88;4916644;28;96777;-81
2023/05/16 10:51:24;;;;;;;2.00;0.80;;;;;;;19.04;39.79;101472.22;4940175;28;97279;-83
2023/05/16 10:53:54;;;;;;;2.20;0.77;;;;;;;19.15;39.33;101470.00;4912005;28;99498;-82
2023/05/16 10:56:23;;;;;;;1.80;0.70;;;;;;;19.08;39.21;101479.00;4909746;28;97575;-82
2023/05/16 10:58:50;;;;;;;5.80;0.80;;;;;;;19.06;39.51;101501.09;4908856;28;96616;-82
2023/05/16 11:01:22;;;;;;;6.67;1.07;;;;;;;19.08;39.62;101479.00;4916416;28;96816;-82
2023/05/16 11:04:03;;;;;;;2.20;0.90;;;;;;;19.31;38.72;101493.31;4909993;28;100659;-82
2023/05/16 11:06:29;;;;;;;1.53;0.67;;;;;;;19.47;39.04;101483.94;4911969;28;96857;-81
2023/05/16 11:09:10;;;;;;;3.60;0.70;;;;;;;19.68;38.07;101478.50;4916568;28;97230;-83
2023/05/16 11:11:50;;;;;;;2.60;0.83;;;;;;;19.84;37.51;101489.34;4909366;28;97327;-81
2023/05/16 11:14:23;;;;;;;1.33;0.60;;;;;;;19.83;34.97;101478.72;4908453;28;100865;-82
2023/05/16 11:16:58;;;;;;;6.50;1.00;;;;;;;19.74;37.43;101498.69;4910482;28;97515;-81
2023/05/16 11:19:32;;;;;;;0.70;0.43;;;;;;;19.82;36.18;101466.03;4909096;28;97513;-82
2023/05/16 11:22:07;;;;;;;1.23;0.70;;;;;;;19.83;36.86;101478.72;4911812;28;97028;-81
2023/05/16 11:24:35;;;;;;;1.57;0.70;;;;;;;19.96;37.48;101487.09;4920211;28;97334;-81